Colville Lake, Northwest Territories

Past 24 Hour Conditions

This table is a summary of hourly weather conditions for the past 24 hours. This summary includes the following parameters: temperature, humidity, dew point, wind speed and direction, air pressure, visibility and/or wind chill and humidex.
Date / Time
(MDT)
Conditions Temp (°C) Humidity (%) Dew Point (°C) Wind (km/h) Pressure (kPa) Vis (km) Wind Chill
23 April 2014
4:00 N/A N/A N/A N/A N/A N/A N/A *
3:00 N/A -13 82 -16 E 10 102.7 N/A -19
2:00 N/A -11 79 -14 ESE 14 102.7 N/A -18
1:00 N/A -10 78 -14 ESE 17 102.7 N/A -18
00:00 N/A -10 76 -14 E 9 102.7 N/A -15
22 April 2014
23:00 N/A -8 70 -12 E 10 102.7 N/A -13
22:00 N/A -6 63 -12 E 14 102.7 N/A -12
21:00 N/A -5 58 -12 E 14 102.7 N/A -10
20:00 N/A -4   57 -11 E 13 102.7 N/A -9
19:00 N/A -5 60 -11 ENE 23 102.7 N/A -11
18:00 N/A -5 59 -11 E 19 102.7 N/A -11
17:00 N/A -6 64 -12 ENE 14 102.7 N/A -11
16:00 N/A -5 63 -11 NW 8 102.7 N/A -9
15:00 N/A -9 78 -12 NNE 10 102.8 N/A -14
14:00 N/A -10 76 -14 N 6 102.8 N/A -14
13:00 N/A -12 83 -14 NNW 8 102.8 N/A -17
12:00 N/A N/A N/A N/A N/A N/A N/A *
11:00 N/A -16 86 -18 N 5 102.8 N/A -20
10:00 N/A -18 86 -20 N 7 102.8 N/A -23
9:00 N/A -19 85 -21 NNE 7 102.8 N/A -25
8:00 N/A -19 87 -20 NNE 4 102.8 N/A -22
7:00 N/A -21 86 -23 NE 6 102.8 N/A -26
6:00 N/A -22   86 -24 NNE 4 102.8 N/A -26
5:00 N/A -20 88 -21 WSW 3 102.8 N/A -22
4:00 N/A -18 91 -19 NNE 6 102.8 N/A -23
N/A
Not available
 ↑ 
Highest temperature
 ↓ 
Lowest temperature
*
Value not significant.

If you require additional historical weather information, please visit Climate Data Online.